sensor_id;sensor_type;location;lat;lon;timestamp;pressure;altitude;pressure_sealevel;temperature;humidity
67377;BME280;54261;46.086;6.588;2023-02-11T00:04:39;94195.16;;;0.07;36.80
67377;BME280;54261;46.086;6.588;2023-02-11T00:09:40;94188.91;;;0.01;36.89
67377;BME280;54261;46.086;6.588;2023-02-11T00:14:42;94189.78;;;-0.12;36.25
67377;BME280;54261;46.086;6.588;2023-02-11T00:19:48;94180.41;;;-0.07;36.84
67377;BME280;54261;46.086;6.588;2023-02-11T00:24:50;94179.81;;;-1.98;41.21
67377;BME280;54261;46.086;6.588;2023-02-11T00:29:52;94191.53;;;-1.25;38.59
67377;BME280;54261;46.086;6.588;2023-02-11T00:34:53;94186.81;;;-0.49;38.59
67377;BME280;54261;46.086;6.588;2023-02-11T00:39:55;94165.59;;;-1.35;38.75
67377;BME280;54261;46.086;6.588;2023-02-11T00:44:57;94179.00;;;-3.33;43.04
67377;BME280;54261;46.086;6.588;2023-02-11T00:49:59;94161.91;;;-1.61;40.55
67377;BME280;54261;46.086;6.588;2023-02-11T00:55:01;94167.03;;;-2.50;40.85
67377;BME280;54261;46.086;6.588;2023-02-11T01:00:04;94170.47;;;-2.50;40.80
67377;BME280;54261;46.086;6.588;2023-02-11T01:05:07;94132.38;;;-2.96;41.25
67377;BME280;54261;46.086;6.588;2023-02-11T01:10:09;94154.03;;;-1.14;39.18
67377;BME280;54261;46.086;6.588;2023-02-11T01:15:15;94151.59;;;-1.36;39.80
67377;BME280;54261;46.086;6.588;2023-02-11T01:20:21;94129.22;;;-0.59;38.58
67377;BME280;54261;46.086;6.588;2023-02-11T01:25:23;94129.69;;;-0.16;37.45
67377;BME280;54261;46.086;6.588;2023-02-11T01:30:25;94128.44;;;0.25;36.80
67377;BME280;54261;46.086;6.588;2023-02-11T01:35:27;94130.81;;;0.01;37.09
67377;BME280;54261;46.086;6.588;2023-02-11T01:40:30;94130.25;;;0.31;36.47
67377;BME280;54261;46.086;6.588;2023-02-11T01:50:50;94119.59;;;-0.33;35.65
67377;BME280;54261;46.086;6.588;2023-02-11T01:55:54;94099.59;;;-0.09;35.89
67377;BME280;54261;46.086;6.588;2023-02-11T02:01:18;94117.53;;;0.15;35.94
67377;BME280;54261;46.086;6.588;2023-02-11T02:06:28;94120.56;;;-1.74;37.62
67377;BME280;54261;46.086;6.588;2023-02-11T02:11:31;94100.50;;;-1.21;37.66
67377;BME280;54261;46.086;6.588;2023-02-11T02:16:34;94107.50;;;-0.54;36.75
67377;BME280;54261;46.086;6.588;2023-02-11T02:27:49;94106.19;;;-1.38;37.48
67377;BME280;54261;46.086;6.588;2023-02-11T02:38:46;94105.34;;;-1.92;38.17
67377;BME280;54261;46.086;6.588;2023-02-11T02:43:50;94098.31;;;-0.45;37.08
67377;BME280;54261;46.086;6.588;2023-02-11T02:48:53;94108.41;;;-1.01;37.74
67377;BME280;54261;46.086;6.588;2023-02-11T03:00:15;94114.97;;;-0.44;36.66
67377;BME280;54261;46.086;6.588;2023-02-11T03:10:33;94102.75;;;-1.79;39.14
67377;BME280;54261;46.086;6.588;2023-02-11T03:15:40;94097.88;;;-1.28;38.61
67377;BME280;54261;46.086;6.588;2023-02-11T03:20:47;94094.84;;;-1.79;38.49
67377;BME280;54261;46.086;6.588;2023-02-11T03:26:07;94076.00;;;-1.48;38.47
67377;BME280;54261;46.086;6.588;2023-02-11T03:36:23;94069.78;;;-0.68;36.58
67377;BME280;54261;46.086;6.588;2023-02-11T03:41:29;94070.72;;;-1.22;38.00
67377;BME280;54261;46.086;6.588;2023-02-11T03:46:35;94069.31;;;-0.52;37.34
67377;BME280;54261;46.086;6.588;2023-02-11T03:51:39;94059.94;;;-0.34;36.38
67377;BME280;54261;46.086;6.588;2023-02-11T03:56:51;94069.09;;;-0.43;35.88
67377;BME280;54261;46.086;6.588;2023-02-11T04:01:53;94056.16;;;-1.38;37.61
67377;BME280;54261;46.086;6.588;2023-02-11T04:06:55;94053.81;;;-0.34;36.42
67377;BME280;54261;46.086;6.588;2023-02-11T04:11:58;94049.88;;;-1.43;37.71
67377;BME280;54261;46.086;6.588;2023-02-11T04:17:00;94039.16;;;-1.69;36.99
67377;BME280;54261;46.086;6.588;2023-02-11T04:22:02;94045.84;;;-0.67;35.97
67377;BME280;54261;46.086;6.588;2023-02-11T04:27:04;94059.25;;;-0.75;35.77
67377;BME280;54261;46.086;6.588;2023-02-11T04:32:05;94051.56;;;-0.76;36.00
67377;BME280;54261;46.086;6.588;2023-02-11T04:37:08;94040.72;;;-2.01;38.16
67377;BME280;54261;46.086;6.588;2023-02-11T04:42:10;94043.22;;;-2.49;38.91
67377;BME280;54261;46.086;6.588;2023-02-11T04:47:12;94036.50;;;-1.69;38.62
67377;BME280;54261;46.086;6.588;2023-02-11T04:52:15;94033.44;;;-1.39;37.96
67377;BME280;54261;46.086;6.588;2023-02-11T04:57:17;94026.56;;;-1.53;37.40
67377;BME280;54261;46.086;6.588;2023-02-11T05:02:19;94022.84;;;-1.05;36.56
67377;BME280;54261;46.086;6.588;2023-02-11T05:07:21;94019.16;;;-0.90;35.84
67377;BME280;54261;46.086;6.588;2023-02-11T05:12:23;94016.13;;;-0.94;36.15
67377;BME280;54261;46.086;6.588;2023-02-11T05:17:24;94019.31;;;-0.72;35.66
67377;BME280;54261;46.086;6.588;2023-02-11T05:22:26;94018.97;;;-0.43;35.64
67377;BME280;54261;46.086;6.588;2023-02-11T05:27:28;94023.97;;;-0.81;35.71
67377;BME280;54261;46.086;6.588;2023-02-11T05:32:30;94024.22;;;-0.89;35.24
67377;BME280;54261;46.086;6.588;2023-02-11T05:37:32;94037.09;;;-1.26;35.25
67377;BME280;54261;46.086;6.588;2023-02-11T05:42:34;94017.38;;;-0.97;35.91
67377;BME280;54261;46.086;6.588;2023-02-11T05:47:35;94030.22;;;-1.74;35.44
67377;BME280;54261;46.086;6.588;2023-02-11T05:52:37;94005.06;;;-3.28;39.37
67377;BME280;54261;46.086;6.588;2023-02-11T05:57:39;93987.69;;;-1.91;37.89
67377;BME280;54261;46.086;6.588;2023-02-11T06:02:41;94007.84;;;-1.04;36.46
67377;BME280;54261;46.086;6.588;2023-02-11T06:07:43;93988.91;;;-1.67;37.07
67377;BME280;54261;46.086;6.588;2023-02-11T06:12:45;94008.31;;;-1.34;36.45
67377;BME280;54261;46.086;6.588;2023-02-11T06:17:47;93997.81;;;-1.61;37.00
67377;BME280;54261;46.086;6.588;2023-02-11T06:22:49;94005.22;;;-1.04;35.56
67377;BME280;54261;46.086;6.588;2023-02-11T06:27:51;94005.13;;;-0.77;35.67
67377;BME280;54261;46.086;6.588;2023-02-11T06:32:53;94013.78;;;-1.23;35.20
67377;BME280;54261;46.086;6.588;2023-02-11T06:37:55;94021.25;;;-1.13;36.32
67377;BME280;54261;46.086;6.588;2023-02-11T06:42:57;94012.63;;;-0.81;35.53
67377;BME280;54261;46.086;6.588;2023-02-11T06:47:59;94010.13;;;-2.02;36.74
67377;BME280;54261;46.086;6.588;2023-02-11T06:53:00;93991.25;;;-2.40;36.89
67377;BME280;54261;46.086;6.588;2023-02-11T06:58:02;94011.84;;;-0.88;36.13
67377;BME280;54261;46.086;6.588;2023-02-11T07:03:04;94028.34;;;-2.14;38.08
67377;BME280;54261;46.086;6.588;2023-02-11T07:08:06;94049.47;;;-1.87;37.68
67377;BME280;54261;46.086;6.588;2023-02-11T07:13:08;94046.78;;;-1.20;36.03
67377;BME280;54261;46.086;6.588;2023-02-11T07:18:09;94064.44;;;-1.20;35.60
67377;BME280;54261;46.086;6.588;2023-02-11T07:23:15;94065.19;;;-2.70;38.71
67377;BME280;54261;46.086;6.588;2023-02-11T07:28:16;94070.91;;;-1.16;37.23
67377;BME280;54261;46.086;6.588;2023-02-11T07:33:18;94059.38;;;-1.49;37.11
67377;BME280;54261;46.086;6.588;2023-02-11T07:38:20;94076.19;;;-1.10;35.87
67377;BME280;54261;46.086;6.588;2023-02-11T07:43:22;94075.94;;;-0.88;36.75
67377;BME280;54261;46.086;6.588;2023-02-11T07:48:24;94078.44;;;-1.47;37.24
67377;BME280;54261;46.086;6.588;2023-02-11T07:53:25;94088.53;;;-0.97;35.41
67377;BME280;54261;46.086;6.588;2023-02-11T07:58:27;94105.16;;;-1.84;38.42
67377;BME280;54261;46.086;6.588;2023-02-11T08:03:30;94071.72;;;-1.90;36.74
67377;BME280;54261;46.086;6.588;2023-02-11T08:08:32;94070.88;;;-2.66;38.18
67377;BME280;54261;46.086;6.588;2023-02-11T08:13:35;94108.19;;;-2.84;38.90
67377;BME280;54261;46.086;6.588;2023-02-11T08:18:37;94106.41;;;-1.39;36.86
67377;BME280;54261;46.086;6.588;2023-02-11T08:23:41;94108.19;;;-1.73;36.67
67377;BME280;54261;46.086;6.588;2023-02-11T08:28:44;94101.00;;;-3.04;39.76
67377;BME280;54261;46.086;6.588;2023-02-11T08:33:47;94106.81;;;-1.36;37.37
67377;BME280;54261;46.086;6.588;2023-02-11T08:38:49;94092.97;;;-0.84;37.15
67377;BME280;54261;46.086;6.588;2023-02-11T08:43:51;94090.50;;;-0.72;36.42
67377;BME280;54261;46.086;6.588;2023-02-11T08:48:53;94105.72;;;-0.15;35.98
67377;BME280;54261;46.086;6.588;2023-02-11T08:53:55;94108.34;;;0.56;35.49
67377;BME280;54261;46.086;6.588;2023-02-11T08:58:57;94026.41;;;-0.79;34.33
67377;BME280;54261;46.086;6.588;2023-02-11T09:03:59;94103.44;;;-0.57;35.47
67377;BME280;54261;46.086;6.588;2023-02-11T09:09:01;94102.50;;;0.47;35.33
67377;BME280;54261;46.086;6.588;2023-02-11T09:14:03;94115.50;;;-1.69;36.85
67377;BME280;54261;46.086;6.588;2023-02-11T09:19:05;94123.84;;;-1.18;36.72
67377;BME280;54261;46.086;6.588;2023-02-11T09:24:07;94116.28;;;-0.15;37.39
67377;BME280;54261;46.086;6.588;2023-02-11T09:29:09;94129.63;;;-3.16;40.66
67377;BME280;54261;46.086;6.588;2023-02-11T09:34:11;94091.56;;;-4.21;44.48
67377;BME280;54261;46.086;6.588;2023-02-11T09:39:16;94132.84;;;-2.43;42.40
67377;BME280;54261;46.086;6.588;2023-02-11T09:44:24;94132.53;;;-1.44;40.79
67377;BME280;54261;46.086;6.588;2023-02-11T09:49:37;94130.13;;;-1.32;39.72
67377;BME280;54261;46.086;6.588;2023-02-11T09:54:59;94138.75;;;-0.64;38.65
67377;BME280;54261;46.086;6.588;2023-02-11T10:21:45;94181.00;;;-5.06;51.60
67377;BME280;54261;46.086;6.588;2023-02-11T10:26:51;94157.63;;;-3.30;46.04
67377;BME280;54261;46.086;6.588;2023-02-11T10:31:53;94166.50;;;-3.02;45.51
67377;BME280;54261;46.086;6.588;2023-02-11T10:36:58;94166.75;;;-3.69;44.56
67377;BME280;54261;46.086;6.588;2023-02-11T10:42:05;94147.56;;;-3.48;41.93
67377;BME280;54261;46.086;6.588;2023-02-11T10:47:18;94156.94;;;-2.46;41.52
67377;BME280;54261;46.086;6.588;2023-02-11T10:52:26;94168.97;;;-2.24;40.93
67377;BME280;54261;46.086;6.588;2023-02-11T10:57:41;94170.53;;;-2.71;41.20
67377;BME280;54261;46.086;6.588;2023-02-11T11:02:52;94144.47;;;-1.69;40.53
67377;BME280;54261;46.086;6.588;2023-02-11T11:07:57;94165.31;;;-1.87;40.55
67377;BME280;54261;46.086;6.588;2023-02-11T11:13:00;94159.13;;;-1.32;38.75
67377;BME280;54261;46.086;6.588;2023-02-11T11:23:23;94154.72;;;-2.43;40.65
67377;BME280;54261;46.086;6.588;2023-02-11T11:28:27;94165.16;;;-1.52;41.76
67377;BME280;54261;46.086;6.588;2023-02-11T11:33:33;94142.38;;;-1.94;40.66
67377;BME280;54261;46.086;6.588;2023-02-11T11:38:49;94140.06;;;-2.59;42.24
67377;BME280;54261;46.086;6.588;2023-02-11T11:49:02;94140.75;;;1.84;36.44
67377;BME280;54261;46.086;6.588;2023-02-11T11:54:09;94103.97;;;1.57;34.34
67377;BME280;54261;46.086;6.588;2023-02-11T11:59:12;94110.16;;;0.30;35.90
67377;BME280;54261;46.086;6.588;2023-02-11T12:04:55;94132.16;;;2.50;35.41
67377;BME280;54261;46.086;6.588;2023-02-11T12:10:27;94121.19;;;0.14;38.05
67377;BME280;54261;46.086;6.588;2023-02-11T12:15:55;94111.63;;;1.28;37.03
67377;BME280;54261;46.086;6.588;2023-02-11T12:21:06;94105.94;;;2.72;35.62
67377;BME280;54261;46.086;6.588;2023-02-11T12:26:22;94093.06;;;4.46;32.53
67377;BME280;54261;46.086;6.588;2023-02-11T12:42:15;94061.00;;;2.89;36.25
67377;BME280;54261;46.086;6.588;2023-02-11T12:53:15;94048.16;;;6.95;32.46
67377;BME280;54261;46.086;6.588;2023-02-11T12:58:22;94034.06;;;6.07;31.52
67377;BME280;54261;46.086;6.588;2023-02-11T13:04:05;93990.38;;;3.82;33.26
67377;BME280;54261;46.086;6.588;2023-02-11T13:09:16;94009.50;;;3.96;33.25
67377;BME280;54261;46.086;6.588;2023-02-11T13:19:31;93999.56;;;2.14;34.38
67377;BME280;54261;46.086;6.588;2023-02-11T13:30:07;93987.75;;;3.00;33.58
67377;BME280;54261;46.086;6.588;2023-02-11T13:35:31;93991.03;;;2.24;34.77
67377;BME280;54261;46.086;6.588;2023-02-11T13:40:36;93969.56;;;3.33;32.54
67377;BME280;54261;46.086;6.588;2023-02-11T13:45:43;93987.75;;;4.28;30.40
67377;BME280;54261;46.086;6.588;2023-02-11T13:50:47;93969.06;;;4.96;30.59
67377;BME280;54261;46.086;6.588;2023-02-11T13:56:03;93981.41;;;4.12;30.85
67377;BME280;54261;46.086;6.588;2023-02-11T14:01:08;93916.28;;;2.10;31.73
67377;BME280;54261;46.086;6.588;2023-02-11T14:06:11;93989.63;;;2.76;31.84
67377;BME280;54261;46.086;6.588;2023-02-11T14:16:34;93951.78;;;3.91;30.75
67377;BME280;54261;46.086;6.588;2023-02-11T14:21:41;93972.44;;;6.31;27.59
67377;BME280;54261;46.086;6.588;2023-02-11T14:42:29;93978.22;;;4.83;30.80
67377;BME280;54261;46.086;6.588;2023-02-11T14:47:40;93947.88;;;3.65;29.84
67377;BME280;54261;46.086;6.588;2023-02-11T14:52:44;93962.75;;;1.82;33.39
67377;BME280;54261;46.086;6.588;2023-02-11T14:57:46;93953.69;;;4.08;30.95
67377;BME280;54261;46.086;6.588;2023-02-11T15:02:51;93975.94;;;6.04;28.51
67377;BME280;54261;46.086;6.588;2023-02-11T15:07:57;93986.28;;;2.56;32.96
67377;BME280;54261;46.086;6.588;2023-02-11T15:13:01;93973.88;;;4.77;29.51
67377;BME280;54261;46.086;6.588;2023-02-11T15:18:04;93945.19;;;5.68;29.03
67377;BME280;54261;46.086;6.588;2023-02-11T15:23:11;93971.94;;;6.39;27.84
67377;BME280;54261;46.086;6.588;2023-02-11T15:28:26;93986.63;;;2.72;33.38
67377;BME280;54261;46.086;6.588;2023-02-11T15:33:30;93959.19;;;2.54;34.57
67377;BME280;54261;46.086;6.588;2023-02-11T15:38:32;93980.88;;;1.66;35.81
67377;BME280;54261;46.086;6.588;2023-02-11T15:43:49;93981.97;;;3.85;32.69
67377;BME280;54261;46.086;6.588;2023-02-11T15:48:54;93988.22;;;3.50;33.76
67377;BME280;54261;46.086;6.588;2023-02-11T15:54:05;93980.22;;;3.21;32.94
67377;BME280;54261;46.086;6.588;2023-02-11T16:04:26;93957.78;;;4.67;30.72
67377;BME280;54261;46.086;6.588;2023-02-11T16:09:35;93994.66;;;6.74;29.74
67377;BME280;54261;46.086;6.588;2023-02-11T16:14:37;93989.13;;;8.76;27.01
67377;BME280;54261;46.086;6.588;2023-02-11T16:19:44;93992.41;;;6.66;27.43
67377;BME280;54261;46.086;6.588;2023-02-11T16:24:48;93995.69;;;3.12;32.98
67377;BME280;54261;46.086;6.588;2023-02-11T16:29:52;93994.53;;;4.36;32.49
67377;BME280;54261;46.086;6.588;2023-02-11T16:34:56;94002.09;;;6.12;29.69
67377;BME280;54261;46.086;6.588;2023-02-11T16:39:58;93995.19;;;7.83;28.50
67377;BME280;54261;46.086;6.588;2023-02-11T16:45:00;93976.16;;;7.59;28.21
67377;BME280;54261;46.086;6.588;2023-02-11T16:50:02;93982.69;;;6.77;28.24
67377;BME280;54261;46.086;6.588;2023-02-11T16:55:05;94007.88;;;6.31;30.04
67377;BME280;54261;46.086;6.588;2023-02-11T17:00:07;94005.78;;;5.56;32.01
67377;BME280;54261;46.086;6.588;2023-02-11T17:05:18;94005.22;;;5.32;32.32
67377;BME280;54261;46.086;6.588;2023-02-11T17:10:22;94007.81;;;4.19;33.89
67377;BME280;54261;46.086;6.588;2023-02-11T17:15:24;93993.53;;;2.97;35.14
67377;BME280;54261;46.086;6.588;2023-02-11T17:20:26;93960.72;;;3.56;32.86
67377;BME280;54261;46.086;6.588;2023-02-11T17:25:27;93981.88;;;2.98;34.44
67377;BME280;54261;46.086;6.588;2023-02-11T17:30:29;93960.72;;;3.85;33.81
67377;BME280;54261;46.086;6.588;2023-02-11T17:35:31;93981.06;;;3.50;34.17
67377;BME280;54261;46.086;6.588;2023-02-11T17:40:33;94017.84;;;4.46;33.07
67377;BME280;54261;46.086;6.588;2023-02-11T17:45:40;94006.00;;;2.96;33.70
67377;BME280;54261;46.086;6.588;2023-02-11T17:50:42;94007.00;;;2.95;34.76
67377;BME280;54261;46.086;6.588;2023-02-11T17:55:44;94023.50;;;2.73;36.12
67377;BME280;54261;46.086;6.588;2023-02-11T18:00:46;94023.13;;;3.29;35.76
67377;BME280;54261;46.086;6.588;2023-02-11T18:05:48;94016.38;;;0.72;38.11
67377;BME280;54261;46.086;6.588;2023-02-11T18:10:50;93950.09;;;1.84;36.16
67377;BME280;54261;46.086;6.588;2023-02-11T18:15:52;94037.00;;;1.00;38.28
67377;BME280;54261;46.086;6.588;2023-02-11T18:20:58;94039.81;;;2.35;34.94
67377;BME280;54261;46.086;6.588;2023-02-11T18:26:00;94040.88;;;1.72;37.05
67377;BME280;54261;46.086;6.588;2023-02-11T18:31:04;94028.31;;;0.24;40.02
67377;BME280;54261;46.086;6.588;2023-02-11T18:36:08;94040.69;;;1.55;35.78
67377;BME280;54261;46.086;6.588;2023-02-11T18:41:11;94044.66;;;2.38;34.61
67377;BME280;54261;46.086;6.588;2023-02-11T18:46:14;94054.28;;;2.20;34.78
67377;BME280;54261;46.086;6.588;2023-02-11T18:51:17;94041.00;;;1.47;36.38
67377;BME280;54261;46.086;6.588;2023-02-11T18:56:21;94045.75;;;3.20;33.12
67377;BME280;54261;46.086;6.588;2023-02-11T19:01:25;94057.75;;;2.87;33.27
67377;BME280;54261;46.086;6.588;2023-02-11T19:06:32;94031.81;;;2.89;33.32
67377;BME280;54261;46.086;6.588;2023-02-11T19:11:36;94057.28;;;2.24;34.95
67377;BME280;54261;46.086;6.588;2023-02-11T19:16:49;94041.41;;;1.93;36.09
67377;BME280;54261;46.086;6.588;2023-02-11T19:21:53;94074.00;;;2.24;35.03
67377;BME280;54261;46.086;6.588;2023-02-11T19:26:57;94065.47;;;3.24;34.40
67377;BME280;54261;46.086;6.588;2023-02-11T19:32:03;94063.16;;;3.16;34.40
67377;BME280;54261;46.086;6.588;2023-02-11T19:37:10;94070.63;;;2.48;35.19
67377;BME280;54261;46.086;6.588;2023-02-11T19:42:13;94062.84;;;0.54;37.18
67377;BME280;54261;46.086;6.588;2023-02-11T19:47:15;94056.88;;;1.78;36.28
67377;BME280;54261;46.086;6.588;2023-02-11T19:52:18;94058.47;;;1.11;35.98
67377;BME280;54261;46.086;6.588;2023-02-11T19:57:20;94072.75;;;1.96;36.35
67377;BME280;54261;46.086;6.588;2023-02-11T20:02:22;94057.38;;;2.48;35.39
67377;BME280;54261;46.086;6.588;2023-02-11T20:07:24;94028.91;;;3.14;31.93
67377;BME280;54261;46.086;6.588;2023-02-11T20:12:26;94057.06;;;2.92;33.51
67377;BME280;54261;46.086;6.588;2023-02-11T20:17:28;94045.91;;;3.54;32.05
67377;BME280;54261;46.086;6.588;2023-02-11T20:22:31;94050.00;;;3.33;31.98
67377;BME280;54261;46.086;6.588;2023-02-11T20:27:32;94057.53;;;3.65;30.33
67377;BME280;54261;46.086;6.588;2023-02-11T20:32:35;94023.09;;;3.70;30.86
67377;BME280;54261;46.086;6.588;2023-02-11T20:37:39;94039.47;;;1.39;34.65
67377;BME280;54261;46.086;6.588;2023-02-11T20:42:44;94036.53;;;-0.24;38.06
67377;BME280;54261;46.086;6.588;2023-02-11T20:47:46;94025.78;;;0.36;36.96
67377;BME280;54261;46.086;6.588;2023-02-11T20:52:48;94016.72;;;0.25;37.73
67377;BME280;54261;46.086;6.588;2023-02-11T20:57:50;94034.22;;;0.51;36.93
67377;BME280;54261;46.086;6.588;2023-02-11T21:02:52;94030.72;;;2.00;35.03
67377;BME280;54261;46.086;6.588;2023-02-11T21:07:54;94031.66;;;2.06;34.37
67377;BME280;54261;46.086;6.588;2023-02-11T21:12:56;94027.19;;;2.18;34.77
67377;BME280;54261;46.086;6.588;2023-02-11T21:17:58;94015.22;;;2.70;32.73
67377;BME280;54261;46.086;6.588;2023-02-11T21:22:59;94027.09;;;-0.06;37.88
67377;BME280;54261;46.086;6.588;2023-02-11T21:28:01;94023.06;;;1.12;35.49
67377;BME280;54261;46.086;6.588;2023-02-11T21:33:04;94021.28;;;0.87;35.28
67377;BME280;54261;46.086;6.588;2023-02-11T21:38:06;94022.47;;;1.10;36.23
67377;BME280;54261;46.086;6.588;2023-02-11T21:43:08;94014.72;;;0.20;35.83
67377;BME280;54261;46.086;6.588;2023-02-11T21:48:10;94021.84;;;-1.04;39.22
67377;BME280;54261;46.086;6.588;2023-02-11T21:53:13;94022.56;;;0.59;37.45
67377;BME280;54261;46.086;6.588;2023-02-11T21:58:15;94023.41;;;0.78;36.93
67377;BME280;54261;46.086;6.588;2023-02-11T22:03:17;94047.50;;;0.88;35.70
67377;BME280;54261;46.086;6.588;2023-02-11T22:08:19;94037.47;;;0.97;36.32
67377;BME280;54261;46.086;6.588;2023-02-11T22:13:21;94035.00;;;-0.06;37.06
67377;BME280;54261;46.086;6.588;2023-02-11T22:18:22;94022.63;;;1.83;33.93
67377;BME280;54261;46.086;6.588;2023-02-11T22:23:24;94037.00;;;2.60;33.34
67377;BME280;54261;46.086;6.588;2023-02-11T22:28:26;94031.34;;;0.97;34.87
67377;BME280;54261;46.086;6.588;2023-02-11T22:33:28;94021.94;;;1.38;34.97
67377;BME280;54261;46.086;6.588;2023-02-11T22:38:31;94029.97;;;1.31;35.77
67377;BME280;54261;46.086;6.588;2023-02-11T22:43:33;93999.50;;;0.41;36.74
67377;BME280;54261;46.086;6.588;2023-02-11T22:48:35;94019.25;;;-0.19;37.90
67377;BME280;54261;46.086;6.588;2023-02-11T22:53:37;94034.66;;;0.16;38.29
67377;BME280;54261;46.086;6.588;2023-02-11T22:58:39;94003.88;;;0.79;36.67
67377;BME280;54261;46.086;6.588;2023-02-11T23:03:41;94046.34;;;-0.05;37.80
67377;BME280;54261;46.086;6.588;2023-02-11T23:08:43;94040.41;;;1.26;35.60
67377;BME280;54261;46.086;6.588;2023-02-11T23:13:46;94040.56;;;0.69;36.30
67377;BME280;54261;46.086;6.588;2023-02-11T23:18:49;94039.69;;;1.99;34.18
67377;BME280;54261;46.086;6.588;2023-02-11T23:23:56;94047.50;;;2.24;33.80
67377;BME280;54261;46.086;6.588;2023-02-11T23:28:58;94041.31;;;-0.53;38.17
67377;BME280;54261;46.086;6.588;2023-02-11T23:34:00;94034.16;;;0.58;36.22
67377;BME280;54261;46.086;6.588;2023-02-11T23:39:03;94046.50;;;0.64;36.60
67377;BME280;54261;46.086;6.588;2023-02-11T23:44:05;94027.00;;;0.84;35.62
67377;BME280;54261;46.086;6.588;2023-02-11T23:49:07;94013.84;;;0.01;37.60
67377;BME280;54261;46.086;6.588;2023-02-11T23:54:13;94040.16;;;0.14;36.70
67377;BME280;54261;46.086;6.588;2023-02-11T23:59:15;94033.66;;;-0.61;39.42
